Jim Hamilton L.B. Owens Airport Columbia US
ICAO: KCUB
IATA: CUB
Category: Medium
Scheduled Services: No

Elevation: 193 ft
TransAlt. 18000 ft.

Airport Communications:
APP/DEP:133.4
ASOS:119.675
CLNC DEL:124.4
MIL OPS:122.8
ANDERSON RDO:114.7
CTAF/UNICOM:122.8

KCUB Zoom In..

Runways:

(A) RW 13 length 5011 ft width 75 ft
LOC 110.90 / hdg 131

(B) RW 31 length 5011 ft width 75 ft
LOC 110.90 / hdg 311

Location; KCUB
Day. 25 / Time. 09.53 Zulu
* Altimeter: 29.79
* Temperature: 14° c. 57.2°f.
* Wind from: 230° Speed 03 kn.
Dewpoint: 13° c.
Visibility: 10 Statute Miles.
Clouds: Clear (automated report).

KCUB 250953Z AUTO 23003KT 10SM CLR 14/13 A2979 RMK AO2 SLP087 T01440128


Wind From 230°
Speed 03 kn.

  YouTube Music Video
 
jpsmedia.com for Web Design  worldairports.se 2018   terms of use